sensor_id;sensor_type;location;lat;lon;timestamp;pressure;altitude;pressure_sealevel;temperature;humidity
3464;BME280;3551;41.578;24.706;2022-12-01T00:01:20;91269.06;;;5.38;100.00
3464;BME280;3551;41.578;24.706;2022-12-01T00:03:47;91270.69;;;5.46;100.00
3464;BME280;3551;41.578;24.706;2022-12-01T00:06:14;91259.31;;;5.45;100.00
3464;BME280;3551;41.578;24.706;2022-12-01T00:08:41;91266.47;;;5.41;100.00
3464;BME280;3551;41.578;24.706;2022-12-01T00:11:30;91275.50;;;5.37;100.00
3464;BME280;3551;41.578;24.706;2022-12-01T00:13:57;91269.41;;;5.36;100.00
3464;BME280;3551;41.578;24.706;2022-12-01T00:16:24;91267.63;;;5.44;100.00
3464;BME280;3551;41.578;24.706;2022-12-01T00:18:51;91266.47;;;5.41;100.00
3464;BME280;3551;41.578;24.706;2022-12-01T00:21:18;91263.16;;;5.48;100.00
3464;BME280;3551;41.578;24.706;2022-12-01T00:23:45;91263.94;;;5.52;100.00
3464;BME280;3551;41.578;24.706;2022-12-01T00:26:12;91262.78;;;5.49;100.00
3464;BME280;3551;41.578;24.706;2022-12-01T00:28:39;91266.50;;;5.45;100.00
3464;BME280;3551;41.578;24.706;2022-12-01T00:31:07;91260.84;;;5.46;100.00
3464;BME280;3551;41.578;24.706;2022-12-01T00:33:34;91271.44;;;5.46;100.00
3464;BME280;3551;41.578;24.706;2022-12-01T00:36:02;91270.69;;;5.46;100.00
3464;BME280;3551;41.578;24.706;2022-12-01T00:38:29;91265.38;;;5.46;100.00
3464;BME280;3551;41.578;24.706;2022-12-01T00:40:55;91256.88;;;5.33;100.00
3464;BME280;3551;41.578;24.706;2022-12-01T00:43:22;91255.03;;;5.37;100.00
3464;BME280;3551;41.578;24.706;2022-12-01T00:45:49;91250.94;;;5.43;100.00
3464;BME280;3551;41.578;24.706;2022-12-01T00:48:17;91248.66;;;5.42;100.00
3464;BME280;3551;41.578;24.706;2022-12-01T00:50:44;91243.69;;;5.37;100.00
3464;BME280;3551;41.578;24.706;2022-12-01T00:53:11;91241.03;;;5.37;100.00
3464;BME280;3551;41.578;24.706;2022-12-01T00:55:37;91241.81;;;5.41;100.00
3464;BME280;3551;41.578;24.706;2022-12-01T00:58:05;91233.88;;;5.41;100.00
3464;BME280;3551;41.578;24.706;2022-12-01T01:00:32;91228.81;;;5.32;100.00
3464;BME280;3551;41.578;24.706;2022-12-01T01:03:03;91231.97;;;5.41;100.00
3464;BME280;3551;41.578;24.706;2022-12-01T01:05:31;91223.63;;;5.39;100.00
3464;BME280;3551;41.578;24.706;2022-12-01T01:08:00;91221.78;;;5.43;100.00
3464;BME280;3551;41.578;24.706;2022-12-01T01:10:27;91224.09;;;5.45;100.00
3464;BME280;3551;41.578;24.706;2022-12-01T01:12:53;91217.16;;;5.37;100.00
3464;BME280;3551;41.578;24.706;2022-12-01T01:15:20;91220.09;;;5.32;100.00
3464;BME280;3551;41.578;24.706;2022-12-01T01:17:47;91217.91;;;5.37;100.00
3464;BME280;3551;41.578;24.706;2022-12-01T01:20:13;91207.72;;;5.39;100.00
3464;BME280;3551;41.578;24.706;2022-12-01T01:22:41;91210.50;;;5.50;100.00
3464;BME280;3551;41.578;24.706;2022-12-01T01:25:08;91217.25;;;5.44;100.00
3464;BME280;3551;41.578;24.706;2022-12-01T01:27:35;91214.19;;;5.42;100.00
3464;BME280;3551;41.578;24.706;2022-12-01T01:30:02;91208.97;;;5.49;100.00
3464;BME280;3551;41.578;24.706;2022-12-01T01:32:29;91215.69;;;5.39;100.00
3464;BME280;3551;41.578;24.706;2022-12-01T01:34:58;91209.69;;;5.46;100.00
3464;BME280;3551;41.578;24.706;2022-12-01T01:37:24;91208.19;;;5.45;100.00
3464;BME280;3551;41.578;24.706;2022-12-01T01:39:53;91212.00;;;5.47;100.00
3464;BME280;3551;41.578;24.706;2022-12-01T01:42:19;91205.53;;;5.45;100.00
3464;BME280;3551;41.578;24.706;2022-12-01T01:44:50;91198.84;;;5.54;100.00
3464;BME280;3551;41.578;24.706;2022-12-01T01:47:18;91198.03;;;5.50;100.00
3464;BME280;3551;41.578;24.706;2022-12-01T01:49:46;91191.59;;;5.51;100.00
3464;BME280;3551;41.578;24.706;2022-12-01T01:52:13;91190.06;;;5.50;100.00
3464;BME280;3551;41.578;24.706;2022-12-01T01:54:40;91193.69;;;5.39;100.00
3464;BME280;3551;41.578;24.706;2022-12-01T01:57:10;91181.59;;;5.41;100.00
3464;BME280;3551;41.578;24.706;2022-12-01T01:59:39;91182.97;;;5.32;100.00
3464;BME280;3551;41.578;24.706;2022-12-01T02:02:07;91190.66;;;5.37;100.00
3464;BME280;3551;41.578;24.706;2022-12-01T02:04:35;91194.16;;;5.44;100.00
3464;BME280;3551;41.578;24.706;2022-12-01T02:07:02;91188.56;;;5.53;100.00
3464;BME280;3551;41.578;24.706;2022-12-01T02:09:30;91190.72;;;5.44;100.00
3464;BME280;3551;41.578;24.706;2022-12-01T02:12:00;91189.69;;;5.52;100.00
3464;BME280;3551;41.578;24.706;2022-12-01T02:14:36;91181.34;;;5.50;100.00
3464;BME280;3551;41.578;24.706;2022-12-01T02:17:07;91172.31;;;5.54;100.00
3464;BME280;3551;41.578;24.706;2022-12-01T02:19:41;91169.50;;;5.44;100.00
3464;BME280;3551;41.578;24.706;2022-12-01T02:22:13;91170.38;;;5.51;100.00
3464;BME280;3551;41.578;24.706;2022-12-01T02:27:40;91177.41;;;5.40;100.00
3464;BME280;3551;41.578;24.706;2022-12-01T02:30:10;91174.19;;;5.54;100.00
3464;BME280;3551;41.578;24.706;2022-12-01T02:32:46;91172.47;;;5.39;100.00
3464;BME280;3551;41.578;24.706;2022-12-01T02:35:15;91171.53;;;5.24;100.00
3464;BME280;3551;41.578;24.706;2022-12-01T02:37:47;91171.22;;;5.29;100.00
3464;BME280;3551;41.578;24.706;2022-12-01T02:40:16;91168.25;;;5.34;100.00
3464;BME280;3551;41.578;24.706;2022-12-01T02:42:47;91164.47;;;5.35;100.00
3464;BME280;3551;41.578;24.706;2022-12-01T02:45:19;91161.59;;;5.47;100.00
3464;BME280;3551;41.578;24.706;2022-12-01T02:47:51;91168.34;;;5.41;100.00
3464;BME280;3551;41.578;24.706;2022-12-01T02:50:20;91164.88;;;5.37;100.00
3464;BME280;3551;41.578;24.706;2022-12-01T02:52:47;91167.94;;;5.39;100.00
3464;BME280;3551;41.578;24.706;2022-12-01T02:55:14;91175.03;;;5.32;100.00
3464;BME280;3551;41.578;24.706;2022-12-01T02:57:41;91173.53;;;5.34;100.00
3464;BME280;3551;41.578;24.706;2022-12-01T03:00:08;91163.72;;;5.35;100.00
3464;BME280;3551;41.578;24.706;2022-12-01T03:02:39;91162.31;;;5.44;100.00
3464;BME280;3551;41.578;24.706;2022-12-01T03:05:11;91157.34;;;5.39;100.00
3464;BME280;3551;41.578;24.706;2022-12-01T03:07:44;91161.22;;;5.49;100.00
3464;BME280;3551;41.578;24.706;2022-12-01T03:10:16;91161.22;;;5.49;100.00
3464;BME280;3551;41.578;24.706;2022-12-01T03:12:46;91157.25;;;5.32;100.00
3464;BME280;3551;41.578;24.706;2022-12-01T03:15:18;91160.28;;;5.34;100.00
3464;BME280;3551;41.578;24.706;2022-12-01T03:17:53;91167.13;;;5.35;100.00
3464;BME280;3551;41.578;24.706;2022-12-01T03:20:26;91172.09;;;5.37;100.00
3464;BME280;3551;41.578;24.706;2022-12-01T03:22:55;91171.25;;;5.33;100.00
3464;BME280;3551;41.578;24.706;2022-12-01T03:25:24;91167.84;;;5.32;100.00
3464;BME280;3551;41.578;24.706;2022-12-01T03:27:51;91161.94;;;5.42;100.00
3464;BME280;3551;41.578;24.706;2022-12-01T03:30:21;91163.16;;;5.48;100.00
3464;BME280;3551;41.578;24.706;2022-12-01T03:32:50;91158.19;;;5.47;100.00
3464;BME280;3551;41.578;24.706;2022-12-01T03:35:18;91165.16;;;5.58;100.00
3464;BME280;3551;41.578;24.706;2022-12-01T03:37:50;91168.44;;;5.48;100.00
3464;BME280;3551;41.578;24.706;2022-12-01T03:40:19;91168.75;;;5.43;100.00
3464;BME280;3551;41.578;24.706;2022-12-01T03:42:51;91162.66;;;5.39;100.00
3464;BME280;3551;41.578;24.706;2022-12-01T03:45:20;91161.56;;;5.44;100.00
3464;BME280;3551;41.578;24.706;2022-12-01T03:47:49;91164.81;;;5.30;100.00
3464;BME280;3551;41.578;24.706;2022-12-01T03:50:17;91165.19;;;5.32;100.00
3464;BME280;3551;41.578;24.706;2022-12-01T03:52:46;91164.13;;;5.37;100.00
3464;BME280;3551;41.578;24.706;2022-12-01T03:55:18;91169.34;;;5.30;100.00
3464;BME280;3551;41.578;24.706;2022-12-01T03:57:48;91168.22;;;5.31;100.00
3464;BME280;3551;41.578;24.706;2022-12-01T04:00:16;91167.91;;;5.36;100.00
3464;BME280;3551;41.578;24.706;2022-12-01T04:02:44;91168.25;;;5.34;100.00
3464;BME280;3551;41.578;24.706;2022-12-01T04:05:11;91164.97;;;5.44;100.00
3464;BME280;3551;41.578;24.706;2022-12-01T04:07:38;91160.44;;;5.45;100.00
3464;BME280;3551;41.578;24.706;2022-12-01T04:10:05;91166.59;;;5.52;100.00
3464;BME280;3551;41.578;24.706;2022-12-01T04:12:34;91156.31;;;5.47;100.00
3464;BME280;3551;41.578;24.706;2022-12-01T04:15:00;91157.78;;;5.45;100.00
3464;BME280;3551;41.578;24.706;2022-12-01T04:17:27;91157.53;;;5.53;100.00
3464;BME280;3551;41.578;24.706;2022-12-01T04:19:54;91163.59;;;5.54;100.00
3464;BME280;3551;41.578;24.706;2022-12-01T04:22:22;91164.13;;;5.37;100.00
3464;BME280;3551;41.578;24.706;2022-12-01T04:24:49;91155.84;;;5.42;100.00
3464;BME280;3551;41.578;24.706;2022-12-01T04:27:16;91161.22;;;5.49;100.00
3464;BME280;3551;41.578;24.706;2022-12-01T04:29:44;91167.19;;;5.39;100.00
3464;BME280;3551;41.578;24.706;2022-12-01T04:32:10;91163.03;;;5.41;100.00
3464;BME280;3551;41.578;24.706;2022-12-01T04:34:37;91164.66;;;5.49;100.00
3464;BME280;3551;41.578;24.706;2022-12-01T04:37:05;91167.25;;;5.46;100.00
3464;BME280;3551;41.578;24.706;2022-12-01T04:39:31;91155.91;;;5.45;100.00
3464;BME280;3551;41.578;24.706;2022-12-01T04:41:58;91161.06;;;5.35;100.00
3464;BME280;3551;41.578;24.706;2022-12-01T04:44:25;91163.00;;;5.38;100.00
3464;BME280;3551;41.578;24.706;2022-12-01T04:46:53;91165.75;;;5.45;100.00
3464;BME280;3551;41.578;24.706;2022-12-01T04:49:20;91160.78;;;5.43;100.00
3464;BME280;3551;41.578;24.706;2022-12-01T04:51:47;91163.03;;;5.41;100.00
3464;BME280;3551;41.578;24.706;2022-12-01T04:54:14;91174.16;;;5.50;100.00
3464;BME280;3551;41.578;24.706;2022-12-01T04:56:41;91161.94;;;5.46;100.00
3464;BME280;3551;41.578;24.706;2022-12-01T04:59:08;91164.22;;;5.44;100.00
3464;BME280;3551;41.578;24.706;2022-12-01T05:01:35;91164.22;;;5.44;100.00
3464;BME280;3551;41.578;24.706;2022-12-01T05:04:03;91166.59;;;5.52;100.00
3464;BME280;3551;41.578;24.706;2022-12-01T05:06:30;91167.22;;;5.42;100.00
3464;BME280;3551;41.578;24.706;2022-12-01T05:08:57;91172.38;;;5.32;100.00
3464;BME280;3551;41.578;24.706;2022-12-01T05:11:25;91166.41;;;5.38;100.00
3464;BME280;3551;41.578;24.706;2022-12-01T05:13:52;91167.84;;;5.32;100.00
3464;BME280;3551;41.578;24.706;2022-12-01T05:16:20;91163.81;;;5.42;100.00
3464;BME280;3551;41.578;24.706;2022-12-01T05:18:48;91159.56;;;5.37;100.00
3464;BME280;3551;41.578;24.706;2022-12-01T05:21:16;91164.53;;;5.39;100.00
3464;BME280;3551;41.578;24.706;2022-12-01T05:23:42;91168.28;;;5.38;100.00
3464;BME280;3551;41.578;24.706;2022-12-01T05:26:10;91165.25;;;5.36;100.00
3464;BME280;3551;41.578;24.706;2022-12-01T05:28:37;91164.13;;;5.37;100.00
3464;BME280;3551;41.578;24.706;2022-12-01T05:31:05;91169.06;;;5.38;100.00
3464;BME280;3551;41.578;24.706;2022-12-01T05:33:31;91157.41;;;5.43;100.00
3464;BME280;3551;41.578;24.706;2022-12-01T05:35:58;91161.94;;;5.46;100.00
3464;BME280;3551;41.578;24.706;2022-12-01T05:38:26;91165.44;;;5.50;100.00
3464;BME280;3551;41.578;24.706;2022-12-01T05:40:53;91172.94;;;5.44;100.00
3464;BME280;3551;41.578;24.706;2022-12-01T05:43:21;91169.78;;;5.35;100.00
3464;BME280;3551;41.578;24.706;2022-12-01T05:45:48;91164.47;;;5.35;100.00
3464;BME280;3551;41.578;24.706;2022-12-01T05:48:15;91159.63;;;5.41;100.00
3464;BME280;3551;41.578;24.706;2022-12-01T05:50:42;91160.72;;;5.36;100.00
3464;BME280;3551;41.578;24.706;2022-12-01T05:53:09;91166.28;;;5.28;100.00
3464;BME280;3551;41.578;24.706;2022-12-01T05:55:37;91162.16;;;5.30;100.00
3464;BME280;3551;41.578;24.706;2022-12-01T05:58:04;91160.34;;;5.38;100.00
3464;BME280;3551;41.578;24.706;2022-12-01T06:00:31;91167.06;;;5.28;100.00
3464;BME280;3551;41.578;24.706;2022-12-01T06:02:58;91177.28;;;5.30;100.00
3464;BME280;3551;41.578;24.706;2022-12-01T06:05:24;91175.59;;;5.44;100.00
3464;BME280;3551;41.578;24.706;2022-12-01T06:07:51;91181.59;;;5.41;100.00
3464;BME280;3551;41.578;24.706;2022-12-01T06:10:18;91182.44;;;5.49;100.00
3464;BME280;3551;41.578;24.706;2022-12-01T06:12:46;91186.69;;;5.53;100.00
3464;BME280;3551;41.578;24.706;2022-12-01T06:15:13;91184.66;;;5.43;100.00
3464;BME280;3551;41.578;24.706;2022-12-01T06:17:39;91178.75;;;5.53;100.00
3464;BME280;3551;41.578;24.706;2022-12-01T06:20:11;91180.94;;;5.48;100.00
3464;BME280;3551;41.578;24.706;2022-12-01T06:22:37;91183.91;;;5.43;100.00
3464;BME280;3551;41.578;24.706;2022-12-01T06:25:05;91176.69;;;5.43;100.00
3464;BME280;3551;41.578;24.706;2022-12-01T06:27:31;91184.19;;;5.38;100.00
3464;BME280;3551;41.578;24.706;2022-12-01T06:29:59;91182.00;;;5.43;100.00
3464;BME280;3551;41.578;24.706;2022-12-01T06:32:26;91181.25;;;5.43;100.00
3464;BME280;3551;41.578;24.706;2022-12-01T06:34:53;91182.09;;;5.50;100.00
3464;BME280;3551;41.578;24.706;2022-12-01T06:37:20;91191.09;;;5.42;100.00
3464;BME280;3551;41.578;24.706;2022-12-01T06:39:47;91186.19;;;5.44;100.00
3464;BME280;3551;41.578;24.706;2022-12-01T06:42:14;91182.38;;;5.42;100.00
3464;BME280;3551;41.578;24.706;2022-12-01T06:44:41;91185.19;;;5.56;100.00
3464;BME280;3551;41.578;24.706;2022-12-01T06:47:09;91191.19;;;5.49;100.00
3464;BME280;3551;41.578;24.706;2022-12-01T06:49:35;91186.19;;;5.44;100.00
3464;BME280;3551;41.578;24.706;2022-12-01T06:52:02;91193.03;;;5.45;100.00
3464;BME280;3551;41.578;24.706;2022-12-01T06:54:29;91189.66;;;5.48;100.00
3464;BME280;3551;41.578;24.706;2022-12-01T06:56:56;91189.66;;;5.48;100.00
3464;BME280;3551;41.578;24.706;2022-12-01T06:59:22;91189.50;;;5.38;100.00
3464;BME280;3551;41.578;24.706;2022-12-01T07:01:50;91191.50;;;5.44;100.00
3464;BME280;3551;41.578;24.706;2022-12-01T07:04:18;91192.66;;;5.47;100.00
3464;BME280;3551;41.578;24.706;2022-12-01T07:06:45;91183.22;;;5.49;100.00
3464;BME280;3551;41.578;24.706;2022-12-01T07:09:12;91190.41;;;5.49;100.00
3464;BME280;3551;41.578;24.706;2022-12-01T07:11:38;91192.59;;;5.43;100.00
3464;BME280;3551;41.578;24.706;2022-12-01T07:14:05;91194.53;;;5.43;100.00
3464;BME280;3551;41.578;24.706;2022-12-01T07:16:34;91192.16;;;5.38;100.00
3464;BME280;3551;41.578;24.706;2022-12-01T07:19:00;91194.03;;;5.37;100.00
3464;BME280;3551;41.578;24.706;2022-12-01T07:21:29;91193.31;;;5.40;100.00
3464;BME280;3551;41.578;24.706;2022-12-01T07:23:56;91188.75;;;5.37;100.00
3464;BME280;3551;41.578;24.706;2022-12-01T07:26:22;91193.06;;;5.49;100.00
3464;BME280;3551;41.578;24.706;2022-12-01T07:28:49;91188.75;;;5.37;100.00
3464;BME280;3551;41.578;24.706;2022-12-01T07:31:17;91191.13;;;5.46;100.00
3464;BME280;3551;41.578;24.706;2022-12-01T07:33:44;91183.28;;;5.53;100.00
3464;BME280;3551;41.578;24.706;2022-12-01T07:36:11;91187.41;;;5.50;100.00
3464;BME280;3551;41.578;24.706;2022-12-01T07:38:40;91195.81;;;5.56;100.00
3464;BME280;3551;41.578;24.706;2022-12-01T07:41:08;91200.28;;;5.52;100.00
3464;BME280;3551;41.578;24.706;2022-12-01T07:43:35;91202.28;;;5.58;100.00
3464;BME280;3551;41.578;24.706;2022-12-01T07:46:03;91200.75;;;5.57;100.00
3464;BME280;3551;41.578;24.706;2022-12-01T07:48:31;91195.44;;;5.57;100.00
3464;BME280;3551;41.578;24.706;2022-12-01T07:50:57;91199.56;;;5.55;100.00
3464;BME280;3551;41.578;24.706;2022-12-01T07:53:24;91193.16;;;5.56;100.00
3464;BME280;3551;41.578;24.706;2022-12-01T07:55:52;91199.13;;;5.49;100.00
3464;BME280;3551;41.578;24.706;2022-12-01T07:58:19;91192.88;;;5.35;100.00
3464;BME280;3551;41.578;24.706;2022-12-01T08:00:46;91193.66;;;5.35;100.00
3464;BME280;3551;41.578;24.706;2022-12-01T08:03:12;91199.06;;;5.42;100.00
3464;BME280;3551;41.578;24.706;2022-12-01T08:05:39;91183.91;;;5.43;100.00
3464;BME280;3551;41.578;24.706;2022-12-01T08:08:06;91188.13;;;5.47;100.00
3464;BME280;3551;41.578;24.706;2022-12-01T08:10:33;91191.63;;;5.55;100.00
3464;BME280;3551;41.578;24.706;2022-12-01T08:13:01;91181.06;;;5.58;100.00
3464;BME280;3551;41.578;24.706;2022-12-01T08:15:27;91178.38;;;5.55;100.00
3464;BME280;3551;41.578;24.706;2022-12-01T08:17:54;91185.56;;;5.54;100.00
3464;BME280;3551;41.578;24.706;2022-12-01T08:20:25;91184.81;;;5.57;100.00
3464;BME280;3551;41.578;24.706;2022-12-01T08:22:52;91184.50;;;5.59;100.00
3464;BME280;3551;41.578;24.706;2022-12-01T08:25:19;91173.81;;;5.55;100.00
3464;BME280;3551;41.578;24.706;2022-12-01T08:27:45;91181.56;;;5.67;100.00
3464;BME280;3551;41.578;24.706;2022-12-01T08:32:44;91178.78;;;5.57;100.00
3464;BME280;3551;41.578;24.706;2022-12-01T08:35:11;91185.78;;;5.42;100.00
3464;BME280;3551;41.578;24.706;2022-12-01T08:37:38;91182.16;;;5.54;100.00
3464;BME280;3551;41.578;24.706;2022-12-01T08:40:05;91187.00;;;5.48;100.00
3464;BME280;3551;41.578;24.706;2022-12-01T08:42:32;91172.56;;;5.46;100.00
3464;BME280;3551;41.578;24.706;2022-12-01T08:45:00;91188.91;;;5.48;100.00
3464;BME280;3551;41.578;24.706;2022-12-01T08:47:26;91176.41;;;5.48;100.00
3464;BME280;3551;41.578;24.706;2022-12-01T08:49:55;91167.00;;;5.54;100.00
3464;BME280;3551;41.578;24.706;2022-12-01T08:52:22;91166.63;;;5.56;100.00
3464;BME280;3551;41.578;24.706;2022-12-01T08:55:03;91167.53;;;5.67;100.00
3464;BME280;3551;41.578;24.706;2022-12-01T08:57:30;91173.97;;;5.66;100.00
3464;BME280;3551;41.578;24.706;2022-12-01T09:00:11;91174.31;;;5.64;100.00
3464;BME280;3551;41.578;24.706;2022-12-01T09:02:52;91175.25;;;5.49;100.00
3464;BME280;3551;41.578;24.706;2022-12-01T09:05:34;91164.72;;;5.53;100.00
3464;BME280;3551;41.578;24.706;2022-12-01T09:08:01;91162.31;;;5.44;100.00
3464;BME280;3551;41.578;24.706;2022-12-01T09:10:49;91165.03;;;5.48;100.00
3464;BME280;3551;41.578;24.706;2022-12-01T09:13:16;91163.09;;;5.45;100.00
3464;BME280;3551;41.578;24.706;2022-12-01T09:15:45;91169.28;;;5.56;100.00
3464;BME280;3551;41.578;24.706;2022-12-01T09:18:33;91167.19;;;5.68;100.00
3464;BME280;3551;41.578;24.706;2022-12-01T09:21:09;91169.38;;;5.63;100.00
3464;BME280;3551;41.578;24.706;2022-12-01T09:23:36;91163.38;;;5.66;100.00
3464;BME280;3551;41.578;24.706;2022-12-01T09:26:04;91167.81;;;5.58;100.00
3464;BME280;3551;41.578;24.706;2022-12-01T09:28:36;91165.69;;;5.41;100.00
3464;BME280;3551;41.578;24.706;2022-12-01T09:31:03;91173.53;;;5.34;100.00
3464;BME280;3551;41.578;24.706;2022-12-01T09:33:30;91173.69;;;5.15;100.00
3464;BME280;3551;41.578;24.706;2022-12-01T09:35:57;91170.72;;;5.20;100.00
3464;BME280;3551;41.578;24.706;2022-12-01T09:38:29;91170.06;;;5.27;100.00
3464;BME280;3551;41.578;24.706;2022-12-01T09:40:56;91164.59;;;5.46;100.00
3464;BME280;3551;41.578;24.706;2022-12-01T09:43:24;91160.88;;;5.50;100.00
3464;BME280;3551;41.578;24.706;2022-12-01T09:45:53;91154.81;;;5.50;100.00
3464;BME280;3551;41.578;24.706;2022-12-01T09:48:25;91156.41;;;5.54;100.00
3464;BME280;3551;41.578;24.706;2022-12-01T09:50:53;91153.06;;;5.61;100.00
3464;BME280;3551;41.578;24.706;2022-12-01T09:53:21;91158.13;;;5.73;100.00
3464;BME280;3551;41.578;24.706;2022-12-01T09:55:50;91148.97;;;5.67;100.00
3464;BME280;3551;41.578;24.706;2022-12-01T09:58:18;91139.50;;;5.69;100.00
3464;BME280;3551;41.578;24.706;2022-12-01T10:00:47;91143.31;;;5.68;100.00
3464;BME280;3551;41.578;24.706;2022-12-01T10:03:17;91141.38;;;5.65;100.00
3464;BME280;3551;41.578;24.706;2022-12-01T10:05:48;91140.59;;;5.65;100.00
3464;BME280;3551;41.578;24.706;2022-12-01T10:08:23;91144.47;;;5.71;100.00
3464;BME280;3551;41.578;24.706;2022-12-01T10:10:54;91144.03;;;5.65;100.00
3464;BME280;3551;41.578;24.706;2022-12-01T10:13:25;91142.94;;;5.70;100.00
3464;BME280;3551;41.578;24.706;2022-12-01T10:15:56;91152.38;;;5.67;100.00
3464;BME280;3551;41.578;24.706;2022-12-01T10:18:28;91149.00;;;5.71;100.00
3464;BME280;3551;41.578;24.706;2022-12-01T10:21:02;91146.34;;;5.71;100.00
3464;BME280;3551;41.578;24.706;2022-12-01T10:23:34;91156.53;;;5.65;100.00
3464;BME280;3551;41.578;24.706;2022-12-01T10:26:08;91148.19;;;5.66;100.00
3464;BME280;3551;41.578;24.706;2022-12-01T10:31:25;91147.50;;;5.40;100.00
3464;BME280;3551;41.578;24.706;2022-12-01T10:33:57;91149.06;;;5.15;100.00
3464;BME280;3551;41.578;24.706;2022-12-01T10:36:27;91151.88;;;5.25;100.00
3464;BME280;3551;41.578;24.706;2022-12-01T10:38:58;91145.88;;;5.32;100.00
3464;BME280;3551;41.578;24.706;2022-12-01T10:41:40;91147.25;;;5.52;100.00
3464;BME280;3551;41.578;24.706;2022-12-01T10:44:09;91136.84;;;5.66;100.00
3464;BME280;3551;41.578;24.706;2022-12-01T10:46:38;91143.31;;;5.72;100.00
3464;BME280;3551;41.578;24.706;2022-12-01T10:49:08;91144.09;;;5.73;100.00
3464;BME280;3551;41.578;24.706;2022-12-01T10:51:45;91143.66;;;5.67;100.00
3464;BME280;3551;41.578;24.706;2022-12-01T10:54:12;91149.78;;;5.71;100.00
3464;BME280;3551;41.578;24.706;2022-12-01T10:56:41;91136.06;;;5.65;100.00
3464;BME280;3551;41.578;24.706;2022-12-01T11:01:54;91133.56;;;5.80;100.00
3464;BME280;3551;41.578;24.706;2022-12-01T11:04:36;91129.03;;;5.80;100.00
3464;BME280;3551;41.578;24.706;2022-12-01T11:07:13;91131.97;;;5.72;100.00
3464;BME280;3551;41.578;24.706;2022-12-01T11:09:40;91132.00;;;5.75;100.00
3464;BME280;3551;41.578;24.706;2022-12-01T11:12:13;91126.28;;;5.73;100.00
3464;BME280;3551;41.578;24.706;2022-12-01T11:14:41;91125.22;;;5.81;100.00
3464;BME280;3551;41.578;24.706;2022-12-01T11:17:24;91121.84;;;5.81;100.00
3464;BME280;3551;41.578;24.706;2022-12-01T11:19:51;91120.59;;;5.71;100.00
3464;BME280;3551;41.578;24.706;2022-12-01T11:22:19;91118.66;;;5.68;100.00
3464;BME280;3551;41.578;24.706;2022-12-01T11:24:54;91127.38;;;5.68;100.00
3464;BME280;3551;41.578;24.706;2022-12-01T11:27:24;91122.81;;;5.65;100.00
3464;BME280;3551;41.578;24.706;2022-12-01T11:29:51;91123.81;;;5.57;100.00
3464;BME280;3551;41.578;24.706;2022-12-01T11:32:20;91119.19;;;5.47;100.00
3464;BME280;3551;41.578;24.706;2022-12-01T11:34:49;91121.78;;;5.44;100.00
3464;BME280;3551;41.578;24.706;2022-12-01T11:37:17;91117.34;;;5.55;100.00
3464;BME280;3551;41.578;24.706;2022-12-01T11:39:44;91127.69;;;5.63;100.00
3464;BME280;3551;41.578;24.706;2022-12-01T11:42:15;91121.66;;;5.66;100.00
3464;BME280;3551;41.578;24.706;2022-12-01T11:44:47;91120.53;;;5.67;100.00
3464;BME280;3551;41.578;24.706;2022-12-01T11:47:16;91121.28;;;5.64;100.00
3464;BME280;3551;41.578;24.706;2022-12-01T11:49:44;91117.16;;;5.71;100.00
3464;BME280;3551;41.578;24.706;2022-12-01T11:52:21;91110.56;;;5.57;100.00
3464;BME280;3551;41.578;24.706;2022-12-01T11:54:56;91114.72;;;5.55;100.00
3464;BME280;3551;41.578;24.706;2022-12-01T11:57:23;91111.47;;;5.68;100.00
3464;BME280;3551;41.578;24.706;2022-12-01T11:59:51;91108.00;;;5.64;100.00
3464;BME280;3551;41.578;24.706;2022-12-01T12:02:20;91115.41;;;5.48;100.00
3464;BME280;3551;41.578;24.706;2022-12-01T12:05:03;91107.91;;;5.57;100.00
3464;BME280;3551;41.578;24.706;2022-12-01T12:07:37;91111.00;;;5.59;100.00
3464;BME280;3551;41.578;24.706;2022-12-01T12:10:21;91110.56;;;5.57;100.00
3464;BME280;3551;41.578;24.706;2022-12-01T12:12:56;91114.06;;;5.65;100.00
3464;BME280;3551;41.578;24.706;2022-12-01T12:15:30;91117.06;;;5.63;100.00
3464;BME280;3551;41.578;24.706;2022-12-01T12:18:04;91122.75;;;5.62;100.00
3464;BME280;3551;41.578;24.706;2022-12-01T12:20:35;91119.34;;;5.61;100.00
3464;BME280;3551;41.578;24.706;2022-12-01T12:23:08;91118.50;;;5.54;100.00
3464;BME280;3551;41.578;24.706;2022-12-01T12:25:45;91120.38;;;5.53;100.00
3464;BME280;3551;41.578;24.706;2022-12-01T12:28:22;91124.59;;;5.58;100.00
3464;BME280;3551;41.578;24.706;2022-12-01T12:31:03;91124.59;;;5.58;100.00
3464;BME280;3551;41.578;24.706;2022-12-01T12:36:20;91125.31;;;5.51;100.00
3464;BME280;3551;41.578;24.706;2022-12-01T12:38:56;91126.03;;;5.52;100.00
3464;BME280;3551;41.578;24.706;2022-12-01T12:41:27;91126.47;;;5.54;100.00
3464;BME280;3551;41.578;24.706;2022-12-01T12:46:42;91130.59;;;5.51;100.00
3464;BME280;3551;41.578;24.706;2022-12-01T12:49:16;91135.19;;;5.54;100.00
3464;BME280;3551;41.578;24.706;2022-12-01T12:51:47;91131.78;;;5.57;100.00
3464;BME280;3551;41.578;24.706;2022-12-01T12:54:19;91135.53;;;5.53;100.00
3464;BME280;3551;41.578;24.706;2022-12-01T12:56:49;91132.84;;;5.49;100.00
3464;BME280;3551;41.578;24.706;2022-12-01T12:59:18;91141.88;;;5.45;100.00
3464;BME280;3551;41.578;24.706;2022-12-01T13:01:53;91131.31;;;5.48;100.00
3464;BME280;3551;41.578;24.706;2022-12-01T13:04:23;91130.47;;;5.41;100.00
3464;BME280;3551;41.578;24.706;2022-12-01T13:06:54;91132.06;;;5.49;100.00
3464;BME280;3551;41.578;24.706;2022-12-01T13:09:27;91129.78;;;5.47;100.00
3464;BME280;3551;41.578;24.706;2022-12-01T13:11:58;91138.09;;;5.46;100.00
3464;BME280;3551;41.578;24.706;2022-12-01T13:14:28;91128.38;;;5.57;100.00
3464;BME280;3551;41.578;24.706;2022-12-01T13:16:57;91128.69;;;5.52;100.00
3464;BME280;3551;41.578;24.706;2022-12-01T13:19:28;91136.69;;;5.55;100.00
3464;BME280;3551;41.578;24.706;2022-12-01T13:21:58;91132.94;;;5.56;100.00
3464;BME280;3551;41.578;24.706;2022-12-01T13:24:26;91140.94;;;5.60;100.00
3464;BME280;3551;41.578;24.706;2022-12-01T13:26:54;91137.34;;;5.45;100.00
3464;BME280;3551;41.578;24.706;2022-12-01T13:29:23;91135.81;;;5.44;100.00
3464;BME280;3551;41.578;24.706;2022-12-01T13:31:51;91135.53;;;5.53;100.00
3464;BME280;3551;41.578;24.706;2022-12-01T13:34:23;91140.41;;;5.47;100.00
3464;BME280;3551;41.578;24.706;2022-12-01T13:36:51;91140.53;;;5.28;100.00